Weather reports worldwide

Advertisment
Puerto Leitariegos, Spain (8052): temperature & dewpoint: 11.07.2018 15:00:00 - 17.07.2018 15:00:00 (CEST)Puerto Leitariegos, Spain (8052): wind speed & gusts: 11.07.2018 15:00:00 - 17.07.2018 15:00:00 (CEST)Puerto Leitariegos, Spain (8052): wind direction: 11.07.2018 15:00:00 - 17.07.2018 15:00:00 (CEST)Puerto Leitariegos, Spain (8052): visibility: 11.07.2018 15:00:00 - 17.07.2018 15:00:00 (CEST)Puerto Leitariegos, Spain (8052): sunshine duration: 11.07.2018 15:00:00 - 17.07.2018 15:00:00 (CEST)Puerto Leitariegos, Spain (8052): precipitation: 11.07.2018 15:00:00 - 17.07.2018 15:00:00 (CEST)
Date & Time tt [°C] td [°C] ff [km/h] ff [kn] fx [km/h] fx [kn] dd vv [km] sd [min] rr [mm]
17.07.2018 15:00:00 - - - - - - - - - -
17.07.2018 14:00:00 16,5 14,2 13 7 19 11 NNW 15 51 -
17.07.2018 13:00:00 - - - - - - - - - -
17.07.2018 12:00:00 18,2 11,5 11 6 23 12 ESE 20 51 0,0
17.07.2018 11:00:00 15,0 11,0 10 5 23 12 SE 20 59 0,0
17.07.2018 10:00:00 - - - - - - - - - -
17.07.2018 09:00:00 12,8 11,0 8 5 12 7 SE 10 42 0,0
17.07.2018 08:00:00 10,0 9,1 6 3 12 6 SE 3,0 0 -
17.07.2018 07:00:00 10,2 9,1 6 4 9 5 SSE 4,5 0 0,0
17.07.2018 06:00:00 - - - - - - - - - -
17.07.2018 05:00:00 9,8 8,7 5 3 9 5 SE 4,1 0 0,0
17.07.2018 04:00:00 - - - - - - - - - -
17.07.2018 03:00:00 9,7 8,5 6 4 10 5 SSE 8 0 0,0
17.07.2018 02:00:00 - - - - - - - - - -
17.07.2018 01:00:00 10,6 9,4 7 4 16 9 WNW 8 0 0,0
17.07.2018 00:00:00 11,0 9,8 11 6 19 10 NW 7 0 0,0
16.07.2018 23:00:00 11,8 10,5 14 8 21 11 NW 10 0 0,0
16.07.2018 22:00:00 12,4 11,0 11 6 21 12 NW 8 0 0,0
16.07.2018 21:00:00 13,1 11,0 15 8 27 15 NW 16 2 0,0
16.07.2018 20:00:00 13,8 9,8 17 9 29 16 NW 20 36 -
16.07.2018 19:00:00 15,9 10,0 15 8 27 14 NW 20 59 0,0
16.07.2018 18:00:00 16,5 10,4 12 7 26 14 NW 20 60 0,0
16.07.2018 17:00:00 16,3 10,6 15 8 33 18 NW 18 59 0,0
16.07.2018 16:00:00 16,0 11,4 15 8 26 14 NW 20 54 0,0
16.07.2018 15:00:00 15,6 12,0 16 9 23 12 NNW 13 50 0,0
16.07.2018 14:00:00 15,1 11,9 10 6 24 13 NNW 20 56 -
16.07.2018 13:00:00 - - - - - - - - - -
16.07.2018 12:00:00 12,6 10,0 8 4 22 12 N 20 11 0,0
16.07.2018 11:00:00 13,0 10,4 16 9 24 13 NNW 20 60 0,2
16.07.2018 10:00:00 - - - - - - - - - -
16.07.2018 09:00:00 - - - - - - - - - -
16.07.2018 08:00:00 8,1 5,7 10 5 16 9 WNW - 0 -
16.07.2018 07:00:00 7,0 5,9 9 5 19 11 NNW - 0 0,0
16.07.2018 06:00:00 - - - - - - - - - -
16.07.2018 05:00:00 7,2 5,0 10 5 22 12 NW - 0 0,0
16.07.2018 04:00:00 9,3 8,7 19 11 28 15 NW - 0 0,0
16.07.2018 03:00:00 9,7 9,1 15 8 22 12 NW - 0 0,0
16.07.2018 02:00:00 - - - - - - - - - -
16.07.2018 01:00:00 9,5 8,7 11 6 18 10 NW - 0 0,0
16.07.2018 00:00:00 9,7 8,9 11 6 16 9 NW - 0 0,0
15.07.2018 23:00:00 - - - - - - - - - -
15.07.2018 22:00:00 9,8 8,6 16 8 27 15 NW - 0 0,0
15.07.2018 21:00:00 - - - - - - - - - -
15.07.2018 20:00:00 - - - - - - - - - -
15.07.2018 19:00:00 - - - - - - - - - -
15.07.2018 18:00:00 - - - - - - - - - -
15.07.2018 17:00:00 - - - - - - - - - -
15.07.2018 16:00:00 - - - - - - - - - -
15.07.2018 15:00:00 13,5 12,2 14 7 21 11 NW - 0 3,6
15.07.2018 14:00:00 14,2 12,4 14 8 24 13 NW - 25 -
15.07.2018 13:00:00 15,6 13,4 14 8 21 12 NW - 32 0,0
15.07.2018 12:00:00 13,8 12,0 12 6 18 10 NNW - 16 0,2
15.07.2018 11:00:00 - - - - - - - - - -
15.07.2018 10:00:00 12,8 11,4 9 5 14 8 NNW - 4 0,0
15.07.2018 09:00:00 - - - - - - - - - -
15.07.2018 08:00:00 10,8 10,0 12 6 16 9 NNW - 0 -
15.07.2018 07:00:00 9,5 8,1 5 3 12 6 NNW - 0 0,0
15.07.2018 06:00:00 - - - - - - - - - -
15.07.2018 05:00:00 11,1 10,3 9 5 16 9 NW - 0 0,0
15.07.2018 04:00:00 10,6 9,8 12 7 16 8 NW - 0 0,0
15.07.2018 03:00:00 9,4 7,2 1 1 6 3 NW - 0 0,0
15.07.2018 02:00:00 - - - - - - - - - -
15.07.2018 01:00:00 11,3 10,4 12 6 21 11 NNW - 0 0,0
15.07.2018 00:00:00 11,0 10,1 13 7 21 11 NW - 0 0,0
14.07.2018 23:00:00 10,9 6,8 2 1 9 5 N - 0 0,0
14.07.2018 22:00:00 - - - - - - - - - -
14.07.2018 21:00:00 12,3 9,3 7 4 27 15 S - 0 0,2
14.07.2018 20:00:00 - - - - - - - - - -
14.07.2018 19:00:00 14,0 11,3 6 3 30 16 SSE - 0 1,2
14.07.2018 18:00:00 16,1 11,7 10 5 26 14 SW - 2 2,6
14.07.2018 17:00:00 17,3 14,4 17 9 28 15 NW - 0 0,0
14.07.2018 16:00:00 - - - - - - - - - -
14.07.2018 15:00:00 17,8 14,1 12 6 22 12 NW - 13 0,0
14.07.2018 14:00:00 20,3 14,0 15 8 24 13 NW - 48 -
14.07.2018 13:00:00 20,7 13,7 9 5 19 10 NW - 60 0,0
14.07.2018 12:00:00 20,3 11,8 9 5 18 10 SE - 60 0,0
14.07.2018 11:00:00 19,2 11,3 7 4 14 8 SSE - 60 0,0
14.07.2018 10:00:00 17,3 11,6 6 3 10 6 ESE - 60 0,0
14.07.2018 09:00:00 - - - - - - - - - -
14.07.2018 08:00:00 10,2 6,2 1 1 5 3 NE - 0 -
14.07.2018 07:00:00 9,7 5,9 1 1 11 6 NNE - 0 0,0
14.07.2018 06:00:00 10,5 6,3 5 3 9 5 SE - 0 0,0
14.07.2018 05:00:00 - - - - - - - - - -
14.07.2018 04:00:00 10,8 6,6 7 4 9 5 SE - 0 0,0
14.07.2018 03:00:00 11,3 6,4 6 3 14 7 SSE - 0 0,0
14.07.2018 02:00:00 10,7 7,0 7 4 13 7 SSE - 0 -
14.07.2018 01:00:00 10,7 7,6 8 4 12 6 SE - 0 0,0
14.07.2018 00:00:00 - - - - - - - - - -
13.07.2018 23:00:00 11,2 8,8 7 4 25 14 SSE - 0 0,0
13.07.2018 22:00:00 11,4 9,0 12 7 31 17 S - 0 0,0
13.07.2018 21:00:00 - - - - - - - - - -
13.07.2018 20:00:00 11,6 9,5 10 5 29 16 NW - 0 -
13.07.2018 19:00:00 - - - - - - - - - -
13.07.2018 18:00:00 12,7 11,4 10 6 44 24 NW - 0 12,8
13.07.2018 17:00:00 - - - - - - - - - -
13.07.2018 16:00:00 18,6 15,8 13 7 21 11 NW 9 11 0,0
13.07.2018 15:00:00 17,5 14,0 13 7 22 12 NW 20 11 0,0
13.07.2018 14:00:00 19,1 16,0 15 8 22 12 NW 13 44 -
13.07.2018 13:00:00 21,1 11,2 13 7 28 15 SSE 20 60 0,0
13.07.2018 12:00:00 20,1 11,8 15 8 25 13 SSE 16 60 0,0
13.07.2018 11:00:00 19,0 11,1 13 7 21 11 SSE 20 60 0,0
13.07.2018 10:00:00 17,6 11,6 9 5 17 9 SSE 20 60 0,0
13.07.2018 09:00:00 15,1 11,7 5 3 11 6 ESE 20 45 0,0
13.07.2018 08:00:00 11,6 9,3 6 3 15 8 SE 20 0 -
13.07.2018 07:00:00 11,8 9,5 8 5 16 8 S 20 0 0,0
13.07.2018 06:00:00 12,2 9,9 8 4 16 9 SSE 20 0 0,0
13.07.2018 05:00:00 - - - - - - - - - -
13.07.2018 04:00:00 11,4 10,1 9 5 13 7 S 14 0 0,0
13.07.2018 03:00:00 - - - - - - - - - -
13.07.2018 02:00:00 10,4 9,3 8 4 11 6 SE 1,9 0 -
13.07.2018 01:00:00 11,0 9,8 2 1 10 5 SE 6 0 0,0
13.07.2018 00:00:00 - - - - - - - - - -
12.07.2018 23:00:00 12,5 10,7 6 3 9 5 SSE 11 0 0,0
12.07.2018 22:00:00 13,2 11,9 7 4 16 9 WNW 3,3 0 0,0
12.07.2018 21:00:00 - - - - - - - - - -
12.07.2018 20:00:00 15,0 12,5 13 7 24 13 NW 8 10 -
12.07.2018 19:00:00 15,4 12,9 14 8 22 12 NW 13 6 0,0
12.07.2018 18:00:00 - - - - - - - - - -
12.07.2018 17:00:00 16,0 13,1 17 9 25 14 NW 14 37 0,0
12.07.2018 16:00:00 15,8 12,9 14 7 27 14 NW 16 22 0,0
12.07.2018 15:00:00 15,7 13,4 15 8 23 12 NW 19 18 0,0
12.07.2018 14:00:00 17,0 13,9 16 9 26 14 NW 20 33 -
12.07.2018 13:00:00 - - - - - - - - - -
12.07.2018 12:00:00 - - - - - - - - - -
12.07.2018 11:00:00 15,5 9,8 11 6 19 11 SSE 20 60 0,0
12.07.2018 10:00:00 13,2 10,4 9 5 19 11 E 14 60 0,0
12.07.2018 09:00:00 11,4 9,3 7 4 10 5 ESE 14 45 0,0
12.07.2018 08:00:00 - - - - - - - - - -
12.07.2018 07:00:00 7,8 6,9 7 4 14 8 SSE 10 0 0,0
12.07.2018 06:00:00 - - - - - - - - - -
12.07.2018 05:00:00 8,6 7,8 6 4 14 8 WNW - 0 0,0
12.07.2018 04:00:00 8,3 7,1 4 2 10 6 ESE 20 0 0,0
12.07.2018 03:00:00 8,4 7,5 7 4 9 5 NW 12 0 0,0
12.07.2018 02:00:00 9,6 8,5 2 1 5 3 W 20 0 -
12.07.2018 01:00:00 9,8 8,6 2 1 6 4 W 6 0 0,0
12.07.2018 00:00:00 - - - - - - - - - -
11.07.2018 23:00:00 11,3 10,7 8 4 16 9 NW 0,3 0 0,0
11.07.2018 22:00:00 11,6 11,0 9 5 16 9 NW 0,5 0 0,2
11.07.2018 21:00:00 - - - - - - - - - -
11.07.2018 20:00:00 12,0 11,2 11 6 22 12 WNW 0,5 0 -
11.07.2018 19:00:00 12,3 11,2 13 7 20 11 NNW 1,4 0 0,0
11.07.2018 18:00:00 - - - - - - - - - -
11.07.2018 17:00:00 12,5 11,1 13 7 27 14 NW 10 0 0,0
11.07.2018 16:00:00 12,5 10,7 16 9 27 15 WNW 19 0 0,0
11.07.2018 15:00:00 12,8 11,0 17 9 24 13 NW 18 0 0,2

tt = temperature
td = dewpoint
ff = wind speed
fx = gusts
dd = wind direction
vv = visibility
sd = sunshine duration
rr = precipitation

Next stations